createdAt,value
2022-11-17T00:00:42.020Z,99951.09
2022-11-17T00:03:13.050Z,99942.09
2022-11-17T00:05:39.703Z,99947.28
2022-11-17T00:08:06.348Z,99940.13
2022-11-17T00:10:32.989Z,99939.06
2022-11-17T00:13:18.197Z,99947.75
2022-11-17T00:15:44.859Z,99934.81
2022-11-17T00:18:30.482Z,99930.16
2022-11-17T00:21:15.636Z,99921.72
2022-11-17T00:23:48.453Z,99927.22
2022-11-17T00:26:17.122Z,99930.84
2022-11-17T00:28:43.773Z,99934.88
2022-11-17T00:31:33.871Z,99907.44
2022-11-17T00:34:07.092Z,99908.97
2022-11-17T00:36:46.059Z,99912.31
2022-11-17T00:39:14.702Z,99901.41
2022-11-17T00:41:41.402Z,99910.56
2022-11-17T00:44:09.048Z,99914.84
2022-11-17T00:46:37.337Z,99898.81
2022-11-17T00:49:05.388Z,99896.56
2022-11-17T00:51:32.620Z,99913.16
2022-11-17T00:53:59.393Z,99889.66
2022-11-17T00:56:27.077Z,99892.78
2022-11-17T00:58:54.107Z,99883.88
2022-11-17T01:01:21.191Z,99884.94
2022-11-17T01:03:48.380Z,99882.66
2022-11-17T01:06:17.434Z,99872.56
2022-11-17T01:08:44.641Z,99869.13
2022-11-17T01:11:17.093Z,99857.63
2022-11-17T01:13:45.024Z,99854.47
2022-11-17T01:16:17.830Z,99861.69
2022-11-17T01:18:46.720Z,99859.00
2022-11-17T01:21:18.334Z,99863.56
2022-11-17T01:23:46.022Z,99855.22
2022-11-17T01:26:16.101Z,99867.28
2022-11-17T01:28:43.235Z,99854.09
2022-11-17T01:31:15.916Z,99855.34
2022-11-17T01:33:43.015Z,99854.63
2022-11-17T01:36:18.193Z,99863.28
2022-11-17T01:38:45.240Z,99855.69
2022-11-17T01:41:22.051Z,99830.34
2022-11-17T01:43:55.137Z,99835.94
2022-11-17T01:46:27.393Z,99830.66
2022-11-17T01:49:21.415Z,99827.69
2022-11-17T01:51:57.610Z,99818.81
2022-11-17T01:54:28.756Z,99811.44
2022-11-17T01:56:59.918Z,99827.56
2022-11-17T01:59:33.977Z,99812.69
2022-11-17T02:02:00.795Z,99805.81
2022-11-17T02:04:32.160Z,99801.03
2022-11-17T02:07:09.998Z,99804.91
2022-11-17T02:09:40.654Z,99798.50
2022-11-17T02:12:10.703Z,99777.41
2022-11-17T02:14:39.064Z,99777.84
2022-11-17T02:17:13.271Z,99772.91
2022-11-17T02:19:44.207Z,99789.53
2022-11-17T02:22:40.753Z,99779.19
2022-11-17T02:25:30.610Z,99776.13
2022-11-17T02:28:08.262Z,99775.31
2022-11-17T02:30:46.058Z,99773.06
2022-11-17T02:33:18.452Z,99785.47
2022-11-17T02:36:00.965Z,99784.25
2022-11-17T02:38:57.319Z,99789.44
2022-11-17T02:41:35.060Z,99811.53
2022-11-17T02:44:08.424Z,99784.38
2022-11-17T02:46:57.922Z,99765.56
2022-11-17T02:49:29.449Z,99770.38
2022-11-17T02:51:58.697Z,99767.00
2022-11-17T02:54:28.964Z,99753.72
2022-11-17T02:56:55.585Z,99775.44
2022-11-17T02:59:28.212Z,99750.97
2022-11-17T03:02:28.763Z,99772.06
2022-11-17T03:05:01.394Z,99760.44
2022-11-17T03:07:42.944Z,99765.59
2022-11-17T03:10:17.088Z,99761.69
2022-11-17T03:13:01.467Z,99759.78
2022-11-17T03:15:59.533Z,99741.31
2022-11-17T03:18:44.164Z,99740.66
2022-11-17T03:21:14.829Z,99747.13
2022-11-17T03:23:41.433Z,99745.72
2022-11-17T03:26:12.112Z,99740.81
2022-11-17T03:28:39.851Z,99733.63
2022-11-17T03:31:09.253Z,99737.25
2022-11-17T03:33:39.209Z,99722.88
2022-11-17T03:36:16.321Z,99722.72
2022-11-17T03:38:51.808Z,99729.69
2022-11-17T03:41:20.821Z,99720.41
2022-11-17T03:43:51.794Z,99719.25
2022-11-17T03:46:21.416Z,99716.34
2022-11-17T03:49:18.437Z,99710.34
2022-11-17T03:51:45.141Z,99715.09
2022-11-17T03:54:12.952Z,99736.16
2022-11-17T03:57:01.965Z,99708.72
2022-11-17T03:59:53.666Z,99722.75
2022-11-17T04:02:21.786Z,99732.34
2022-11-17T04:05:06.962Z,99728.59
2022-11-17T04:07:40.232Z,99695.94
2022-11-17T04:10:10.373Z,99705.66
2022-11-17T04:12:56.436Z,99692.69
2022-11-17T04:15:52.828Z,99701.44
2022-11-17T04:18:20.687Z,99677.69
2022-11-17T04:20:55.357Z,99683.31
2022-11-17T04:23:23.003Z,99683.59
2022-11-17T04:26:10.855Z,99666.50
2022-11-17T04:28:41.657Z,99672.78
2022-11-17T04:31:20.464Z,99661.88
2022-11-17T04:34:06.406Z,99663.09
2022-11-17T04:36:37.805Z,99660.09
2022-11-17T04:39:04.577Z,99653.25
2022-11-17T04:41:49.845Z,99651.16
2022-11-17T04:44:17.651Z,99644.97
2022-11-17T04:46:45.914Z,99662.69
2022-11-17T04:49:13.758Z,99646.34
2022-11-17T04:51:41.322Z,99647.41
2022-11-17T04:54:09.445Z,99630.66
2022-11-17T04:56:36.771Z,99643.88
2022-11-17T04:59:04.235Z,99647.41
2022-11-17T05:01:31.925Z,99645.28
2022-11-17T05:04:00.973Z,99638.56
2022-11-17T05:06:37.726Z,99636.78
2022-11-17T05:09:12.676Z,99634.13
2022-11-17T05:11:58.266Z,99643.19
2022-11-17T05:14:26.527Z,99636.88
2022-11-17T05:17:10.362Z,99620.22
2022-11-17T05:19:44.797Z,99622.47
2022-11-17T05:22:34.865Z,99607.75
2022-11-17T05:25:01.555Z,99632.53
2022-11-17T05:27:28.385Z,99644.88
2022-11-17T05:29:55.016Z,99653.19
2022-11-17T05:32:21.676Z,99638.28
2022-11-17T05:34:48.288Z,99646.16
2022-11-17T05:37:15.143Z,99645.06
2022-11-17T05:39:41.909Z,99631.81
2022-11-17T05:42:08.557Z,99632.34
2022-11-17T05:44:35.211Z,99628.47
2022-11-17T05:47:01.836Z,99639.38
2022-11-17T05:49:28.423Z,99638.78
2022-11-17T05:51:55.079Z,99631.81
2022-11-17T05:54:21.804Z,99634.16
2022-11-17T05:57:06.404Z,99629.00
2022-11-17T05:59:42.686Z,99617.56
2022-11-17T06:02:18.047Z,99626.28
2022-11-17T06:04:46.252Z,99634.28
2022-11-17T06:07:13.000Z,99608.28
2022-11-17T06:09:41.927Z,99629.66
2022-11-17T06:12:08.828Z,99633.19
2022-11-17T06:14:35.705Z,99621.69
2022-11-17T06:17:07.583Z,99621.75
2022-11-17T06:19:41.993Z,99624.28
2022-11-17T06:22:12.761Z,99620.41
2022-11-17T06:24:43.309Z,99608.16
2022-11-17T06:27:11.838Z,99605.13
2022-11-17T06:29:43.875Z,99617.94
2022-11-17T06:32:15.703Z,99612.19
2022-11-17T06:34:48.034Z,99610.28
2022-11-17T06:37:17.176Z,99602.16
2022-11-17T06:39:43.777Z,99611.53
2022-11-17T06:42:10.309Z,99612.19
2022-11-17T06:44:36.938Z,99609.56
2022-11-17T06:47:03.748Z,99601.31
2022-11-17T06:49:30.371Z,99596.25
2022-11-17T06:51:56.939Z,99603.94
2022-11-17T06:54:23.539Z,99590.09
2022-11-17T06:56:51.438Z,99586.44
2022-11-17T06:59:18.113Z,99599.59
2022-11-17T07:01:44.654Z,99579.53
2022-11-17T07:04:11.217Z,99576.47
2022-11-17T07:06:38.036Z,99587.94
2022-11-17T07:09:05.408Z,99580.50
2022-11-17T07:11:34.463Z,99581.41
2022-11-17T07:14:01.056Z,99589.19
2022-11-17T07:16:29.141Z,99591.00
2022-11-17T07:18:55.763Z,99593.13
2022-11-17T07:21:22.431Z,99593.44
2022-11-17T07:23:49.022Z,99610.38
2022-11-17T07:26:15.617Z,99604.72
2022-11-17T07:28:42.203Z,99606.16
2022-11-17T07:31:09.445Z,99608.28
2022-11-17T07:33:36.981Z,99593.91
2022-11-17T07:36:12.443Z,99597.78
2022-11-17T07:38:40.201Z,99583.25
2022-11-17T07:41:08.783Z,99580.31
2022-11-17T07:43:36.340Z,99601.13
2022-11-17T07:46:07.434Z,99595.25
2022-11-17T07:48:34.733Z,99591.78
2022-11-17T07:51:03.304Z,99601.50
2022-11-17T07:53:32.400Z,99589.41
2022-11-17T07:56:04.056Z,99581.25
2022-11-17T07:58:30.881Z,99578.84
2022-11-17T08:00:57.664Z,99601.13
2022-11-17T08:03:24.611Z,99586.44
2022-11-17T08:05:51.230Z,99591.19
2022-11-17T08:08:17.869Z,99617.88
2022-11-17T08:10:44.496Z,99596.31
2022-11-17T08:13:11.769Z,99580.13
2022-11-17T08:15:38.493Z,99589.94
2022-11-17T08:18:06.172Z,99601.88
2022-11-17T08:20:32.789Z,99598.09
2022-11-17T08:22:59.363Z,99599.44
2022-11-17T08:25:27.427Z,99594.56
2022-11-17T08:27:55.767Z,99579.34
2022-11-17T08:30:22.976Z,99572.69
2022-11-17T08:32:52.142Z,99580.59
2022-11-17T08:35:20.718Z,99585.06
2022-11-17T08:37:47.434Z,99575.06
2022-11-17T08:40:15.849Z,99580.50
2022-11-17T08:42:42.440Z,99587.84
2022-11-17T08:45:10.601Z,99577.47
2022-11-17T08:47:37.712Z,99589.03
2022-11-17T08:50:06.006Z,99570.09
2022-11-17T08:52:32.802Z,99584.72
2022-11-17T08:54:59.509Z,99575.78
2022-11-17T08:57:26.201Z,99565.19
2022-11-17T08:59:52.859Z,99554.75
2022-11-17T09:02:19.456Z,99566.47
2022-11-17T09:04:46.756Z,99568.81
2022-11-17T09:07:13.802Z,99568.41
2022-11-17T09:09:40.614Z,99565.50
2022-11-17T09:12:07.696Z,99565.13
2022-11-17T09:14:34.360Z,99575.22
2022-11-17T09:17:01.099Z,99579.16
2022-11-17T09:19:27.737Z,99571.03
2022-11-17T09:21:54.403Z,99554.06
2022-11-17T09:24:21.006Z,99548.03
2022-11-17T09:26:47.632Z,99549.72
2022-11-17T09:29:14.337Z,99554.31
2022-11-17T09:31:41.044Z,99550.91
2022-11-17T09:34:08.090Z,99558.63
2022-11-17T09:36:35.067Z,99557.50
2022-11-17T09:39:01.722Z,99552.09
2022-11-17T09:41:40.870Z,99553.78
2022-11-17T09:44:32.180Z,99551.03
2022-11-17T09:47:23.590Z,99544.72
2022-11-17T09:50:28.713Z,99547.91
2022-11-17T09:53:15.008Z,99550.81
2022-11-17T09:55:45.437Z,99559.00
2022-11-17T09:58:26.866Z,99537.19
2022-11-17T10:00:54.395Z,99542.06
2022-11-17T10:03:30.732Z,99539.09
2022-11-17T10:05:59.518Z,99535.78
2022-11-17T10:08:42.896Z,99549.94
2022-11-17T10:11:31.828Z,99544.75
2022-11-17T10:14:03.797Z,99531.50
2022-11-17T10:16:31.447Z,99534.78
2022-11-17T10:18:58.317Z,99533.34
2022-11-17T10:21:30.340Z,99538.38
2022-11-17T10:23:59.177Z,99539.59
2022-11-17T10:26:26.457Z,99537.00
2022-11-17T10:29:12.440Z,99511.03
2022-11-17T10:31:45.341Z,99513.84
2022-11-17T10:34:31.896Z,99540.28
2022-11-17T10:37:23.043Z,99518.66
2022-11-17T10:39:49.768Z,99505.97
2022-11-17T10:42:28.847Z,99505.03
2022-11-17T10:45:00.373Z,99513.78
2022-11-17T10:47:40.473Z,99519.53
2022-11-17T10:50:25.909Z,99516.69
2022-11-17T10:52:54.536Z,99508.53
2022-11-17T10:55:27.569Z,99509.09
2022-11-17T10:58:19.677Z,99503.44
2022-11-17T11:00:56.739Z,99498.09
2022-11-17T11:03:28.092Z,99508.00
2022-11-17T11:06:02.131Z,99492.69
2022-11-17T11:08:55.328Z,99508.06
2022-11-17T11:11:42.307Z,99490.47
2022-11-17T11:14:14.615Z,99492.84
2022-11-17T11:16:47.796Z,99473.84
2022-11-17T11:19:17.337Z,99467.78
2022-11-17T11:21:58.124Z,99469.00
2022-11-17T11:24:52.393Z,99461.50
2022-11-17T11:27:54.107Z,99462.56
2022-11-17T11:30:20.919Z,99477.19
2022-11-17T11:33:23.130Z,99460.00
2022-11-17T11:36:05.107Z,99461.31
2022-11-17T11:38:34.578Z,99464.53
2022-11-17T11:41:39.782Z,99499.97
2022-11-17T11:44:18.776Z,99471.41
2022-11-17T11:46:54.247Z,99465.91
2022-11-17T11:49:29.937Z,99454.72
2022-11-17T11:51:57.414Z,99473.44
2022-11-17T11:54:51.246Z,99455.94
2022-11-17T11:57:25.206Z,99457.56
2022-11-17T12:00:04.389Z,99458.59
2022-11-17T12:02:55.303Z,99460.72
2022-11-17T12:05:32.204Z,99461.34
2022-11-17T12:08:18.610Z,99449.53
2022-11-17T12:10:48.894Z,99445.47
2022-11-17T12:13:18.921Z,99462.56
2022-11-17T12:15:45.615Z,99473.22
2022-11-17T12:18:18.395Z,99461.41
2022-11-17T12:20:52.883Z,99449.66
2022-11-17T12:23:53.238Z,99459.31
2022-11-17T12:26:26.129Z,99445.50
2022-11-17T12:29:21.145Z,99455.91
2022-11-17T12:31:49.494Z,99456.56
2022-11-17T12:34:21.446Z,99449.59
2022-11-17T12:37:15.932Z,99436.09
2022-11-17T12:40:03.842Z,99449.16
2022-11-17T12:42:32.402Z,99454.00
2022-11-17T12:45:06.255Z,99446.44
2022-11-17T12:47:37.280Z,99452.16
2022-11-17T12:50:19.794Z,99480.69
2022-11-17T12:53:18.277Z,99461.59
2022-11-17T12:55:57.001Z,99461.47
2022-11-17T12:58:36.004Z,99465.94
2022-11-17T13:01:16.119Z,99469.69
2022-11-17T13:03:47.120Z,99494.31
2022-11-17T13:09:06.856Z,99489.38
2022-11-17T13:11:34.196Z,99460.66
2022-11-17T13:14:17.162Z,99466.44
2022-11-17T13:16:51.168Z,99474.00
2022-11-17T13:19:30.045Z,99474.31
2022-11-17T13:22:01.520Z,99460.16
2022-11-17T13:24:31.199Z,99470.41
2022-11-17T13:26:59.979Z,99465.22
2022-11-17T13:29:26.635Z,99470.44
2022-11-17T13:32:24.010Z,99470.38
2022-11-17T13:34:56.695Z,99453.53
2022-11-17T13:37:30.208Z,99468.81
2022-11-17T13:40:19.870Z,99467.22
2022-11-17T13:42:47.294Z,99467.16
2022-11-17T13:45:15.617Z,99460.78
2022-11-17T13:47:48.079Z,99474.72
2022-11-17T13:50:26.937Z,99468.34
2022-11-17T13:53:26.517Z,99461.47
2022-11-17T13:55:53.343Z,99457.31
2022-11-17T13:58:27.156Z,99460.03
2022-11-17T14:00:57.614Z,99473.84
2022-11-17T14:03:33.575Z,99476.44
2022-11-17T14:06:05.603Z,99476.59
2022-11-17T14:08:34.607Z,99477.13
2022-11-17T14:11:10.171Z,99470.59
2022-11-17T14:13:44.864Z,99466.72
2022-11-17T14:16:27.409Z,99466.13
2022-11-17T14:19:00.070Z,99471.94
2022-11-17T14:21:27.667Z,99474.44
2022-11-17T14:24:23.448Z,99472.09
2022-11-17T14:26:50.140Z,99475.69
2022-11-17T14:29:17.040Z,99475.75
2022-11-17T14:31:43.687Z,99472.38
2022-11-17T14:34:10.345Z,99489.03
2022-11-17T14:36:39.359Z,99479.91
2022-11-17T14:39:18.021Z,99483.16
2022-11-17T14:41:47.745Z,99485.28
2022-11-17T14:44:14.718Z,99507.56
2022-11-17T14:46:41.797Z,99491.31
2022-11-17T14:49:09.134Z,99482.56
2022-11-17T14:51:36.103Z,99491.66
2022-11-17T14:54:04.144Z,99491.53
2022-11-17T14:56:30.844Z,99489.91
2022-11-17T14:58:59.459Z,99495.09
2022-11-17T15:01:31.844Z,99491.25
2022-11-17T15:04:15.349Z,99501.69
2022-11-17T15:06:48.180Z,99498.66
2022-11-17T15:09:17.924Z,99492.59
2022-11-17T15:11:44.502Z,99489.03
2022-11-17T15:14:11.430Z,99497.00
2022-11-17T15:16:38.372Z,99516.00
2022-11-17T15:19:06.737Z,99504.19
2022-11-17T15:21:33.751Z,99517.91
2022-11-17T15:24:01.937Z,99506.47
2022-11-17T15:26:28.567Z,99533.41
2022-11-17T15:28:57.787Z,99506.41
2022-11-17T15:31:24.551Z,99515.69
2022-11-17T15:33:51.275Z,99506.63
2022-11-17T15:36:21.399Z,99517.59
2022-11-17T15:38:48.100Z,99525.50
2022-11-17T15:41:15.692Z,99519.00
2022-11-17T15:43:43.857Z,99525.56
2022-11-17T15:46:12.875Z,99513.66
2022-11-17T15:48:42.920Z,99525.34
2022-11-17T15:51:12.121Z,99532.75
2022-11-17T15:53:39.508Z,99528.25
2022-11-17T15:56:12.912Z,99521.75
2022-11-17T15:58:41.241Z,99524.84
2022-11-17T16:01:16.459Z,99517.31
2022-11-17T16:03:45.162Z,99528.97
2022-11-17T16:06:13.074Z,99536.97
2022-11-17T16:08:39.745Z,99532.31
2022-11-17T16:11:07.321Z,99529.75
2022-11-17T16:13:34.041Z,99537.16
2022-11-17T16:16:00.853Z,99532.81
2022-11-17T16:18:27.562Z,99533.38
2022-11-17T16:20:54.770Z,99520.13
2022-11-17T16:23:22.106Z,99529.81
2022-11-17T16:25:49.005Z,99534.56
2022-11-17T16:28:17.104Z,99538.94
2022-11-17T16:30:43.802Z,99532.50
2022-11-17T16:33:14.993Z,99530.63
2022-11-17T16:35:41.660Z,99528.66
2022-11-17T16:38:15.956Z,99530.94
2022-11-17T16:40:43.706Z,99530.03
2022-11-17T16:43:12.330Z,99529.63
2022-11-17T16:45:44.686Z,99553.09
2022-11-17T16:48:12.724Z,99531.78
2022-11-17T16:50:41.364Z,99532.53
2022-11-17T16:53:08.606Z,99534.78
2022-11-17T16:55:36.132Z,99534.00
2022-11-17T16:58:04.506Z,99537.81
2022-11-17T17:00:31.578Z,99538.41
2022-11-17T17:02:58.322Z,99546.84
2022-11-17T17:05:25.702Z,99533.09
2022-11-17T17:07:52.349Z,99542.75
2022-11-17T17:10:19.119Z,99546.81
2022-11-17T17:12:45.717Z,99545.53
2022-11-17T17:15:14.959Z,99546.03
2022-11-17T17:17:41.566Z,99559.91
2022-11-17T17:20:09.893Z,99555.56
2022-11-17T17:22:36.497Z,99557.44
2022-11-17T17:25:03.725Z,99558.72
2022-11-17T17:27:31.272Z,99556.88
2022-11-17T17:29:57.996Z,99557.44
2022-11-17T17:32:24.619Z,99565.19
2022-11-17T17:34:51.606Z,99565.88
2022-11-17T17:37:18.254Z,99568.94
2022-11-17T17:39:45.051Z,99574.81
2022-11-17T17:42:13.264Z,99565.13
2022-11-17T17:44:40.027Z,99569.81
2022-11-17T17:47:06.661Z,99577.84
2022-11-17T17:49:33.265Z,99583.03
2022-11-17T17:51:59.898Z,99571.09
2022-11-17T17:54:26.477Z,99584.88
2022-11-17T17:56:53.180Z,99581.59
2022-11-17T17:59:20.137Z,99579.69
2022-11-17T18:01:48.033Z,99589.75
2022-11-17T18:04:16.583Z,99595.09
2022-11-17T18:06:47.140Z,99597.63
2022-11-17T18:09:15.564Z,99588.34
2022-11-17T18:11:46.001Z,99594.16
2022-11-17T18:14:13.475Z,99600.00
2022-11-17T18:16:40.787Z,99592.34
2022-11-17T18:19:09.082Z,99596.22
2022-11-17T18:21:36.333Z,99597.25
2022-11-17T18:24:04.226Z,99596.84
2022-11-17T18:26:35.970Z,99604.22
2022-11-17T18:29:05.443Z,99613.56
2022-11-17T18:31:35.052Z,99602.13
2022-11-17T18:34:04.970Z,99600.22
2022-11-17T18:36:32.296Z,99599.38
2022-11-17T18:38:59.040Z,99602.13
2022-11-17T18:41:26.770Z,99596.97
2022-11-17T18:43:54.999Z,99605.09
2022-11-17T18:46:23.558Z,99605.22
2022-11-17T18:48:54.220Z,99595.91
2022-11-17T18:51:23.250Z,99616.00
2022-11-17T18:53:51.803Z,99607.34
2022-11-17T18:56:21.648Z,99609.13
2022-11-17T18:58:48.599Z,99614.59
2022-11-17T19:01:23.640Z,99617.97
2022-11-17T19:03:55.023Z,99622.84
2022-11-17T19:06:24.542Z,99614.84
2022-11-17T19:08:52.360Z,99622.25
2022-11-17T19:11:20.712Z,99623.50
2022-11-17T19:13:47.589Z,99620.81
2022-11-17T19:16:17.294Z,99624.78
2022-11-17T19:18:45.369Z,99629.28
2022-11-17T19:21:14.870Z,99627.38
2022-11-17T19:23:48.036Z,99634.94
2022-11-17T19:26:23.817Z,99645.13
2022-11-17T19:28:50.883Z,99635.00
2022-11-17T19:31:19.792Z,99644.38
2022-11-17T19:33:47.916Z,99642.78
2022-11-17T19:36:22.762Z,99655.56
2022-11-17T19:38:54.014Z,99639.53
2022-11-17T19:41:23.564Z,99650.56
2022-11-17T19:44:01.906Z,99658.63
2022-11-17T19:46:30.049Z,99660.16
2022-11-17T19:48:57.235Z,99667.50
2022-11-17T19:51:29.546Z,99673.38
2022-11-17T19:54:00.465Z,99652.97
2022-11-17T19:56:27.822Z,99666.75
2022-11-17T19:58:55.516Z,99670.66
2022-11-17T20:01:27.613Z,99661.09
2022-11-17T20:03:55.229Z,99680.38
2022-11-17T20:06:27.097Z,99669.78
2022-11-17T20:08:55.120Z,99682.31
2022-11-17T20:11:24.267Z,99672.59
2022-11-17T20:13:51.255Z,99676.25
2022-11-17T20:16:21.285Z,99678.53
2022-11-17T20:18:52.571Z,99677.78
2022-11-17T20:21:19.618Z,99687.81
2022-11-17T20:23:46.776Z,99700.00
2022-11-17T20:26:19.419Z,99679.81
2022-11-17T20:28:46.545Z,99687.03
2022-11-17T20:31:33.408Z,99695.44
2022-11-17T20:34:01.505Z,99697.72
2022-11-17T20:36:30.093Z,99699.47
2022-11-17T20:38:59.095Z,99684.97
2022-11-17T20:41:26.118Z,99694.03
2022-11-17T20:43:57.001Z,99693.81
2022-11-17T20:46:24.816Z,99695.78
2022-11-17T20:48:51.858Z,99714.50
2022-11-17T20:51:23.390Z,99708.81
2022-11-17T20:53:50.455Z,99696.16
2022-11-17T20:56:17.740Z,99702.53
2022-11-17T20:58:44.973Z,99707.84
2022-11-17T21:01:15.911Z,99696.81
2022-11-17T21:03:43.099Z,99704.47
2022-11-17T21:06:10.356Z,99722.41
2022-11-17T21:08:39.899Z,99718.44
2022-11-17T21:11:32.221Z,99703.13
2022-11-17T21:13:59.293Z,99703.63
2022-11-17T21:16:25.938Z,99707.44
2022-11-17T21:18:52.727Z,99704.13
2022-11-17T21:21:19.364Z,99716.38
2022-11-17T21:23:46.145Z,99712.06
2022-11-17T21:26:17.132Z,99716.66
2022-11-17T21:28:44.121Z,99727.50
2022-11-17T21:31:13.678Z,99715.16
2022-11-17T21:33:41.011Z,99714.81
2022-11-17T21:36:13.297Z,99713.78
2022-11-17T21:38:40.247Z,99720.41
2022-11-17T21:41:10.787Z,99718.41
2022-11-17T21:43:38.912Z,99721.28
2022-11-17T21:46:08.217Z,99719.59
2022-11-17T21:48:36.466Z,99726.38
2022-11-17T21:51:04.517Z,99718.97
2022-11-17T21:53:31.214Z,99726.03
2022-11-17T21:56:05.443Z,99730.03
2022-11-17T21:58:32.487Z,99734.63
2022-11-17T22:00:59.607Z,99735.47
2022-11-17T22:03:26.288Z,99740.41
2022-11-17T22:05:55.735Z,99746.41
2022-11-17T22:08:24.738Z,99742.09
2022-11-17T22:10:51.315Z,99744.38
2022-11-17T22:13:17.905Z,99743.09
2022-11-17T22:15:44.530Z,99747.97
2022-11-17T22:18:11.139Z,99745.66
2022-11-17T22:20:37.781Z,99751.66
2022-11-17T22:23:04.499Z,99756.28
2022-11-17T22:25:44.626Z,99764.03
2022-11-17T22:28:12.212Z,99767.16
2022-11-17T22:30:38.962Z,99752.53
2022-11-17T22:33:05.594Z,99773.75
2022-11-17T22:35:32.221Z,99778.38
2022-11-17T22:37:58.814Z,99790.25
2022-11-17T22:40:25.365Z,99761.84
2022-11-17T22:42:55.138Z,99785.97
2022-11-17T22:45:33.556Z,99769.63
2022-11-17T22:48:01.870Z,99781.31
2022-11-17T22:50:28.466Z,99784.31
2022-11-17T22:52:55.353Z,99775.53
2022-11-17T22:55:22.178Z,99781.25
2022-11-17T22:57:50.604Z,99797.69
2022-11-17T23:00:17.315Z,99789.25
2022-11-17T23:02:43.934Z,99783.41
2022-11-17T23:05:10.575Z,99791.38
2022-11-17T23:07:37.210Z,99803.69
2022-11-17T23:10:04.311Z,99800.56
2022-11-17T23:12:30.912Z,99796.38
2022-11-17T23:14:57.521Z,99812.81
2022-11-17T23:17:24.696Z,99805.78
2022-11-17T23:19:51.286Z,99808.28
2022-11-17T23:22:17.899Z,99811.03
2022-11-17T23:24:44.500Z,99804.03
2022-11-17T23:27:11.293Z,99808.63
2022-11-17T23:29:37.936Z,99808.03
2022-11-17T23:32:04.736Z,99808.16
2022-11-17T23:34:31.460Z,99819.78
2022-11-17T23:37:03.394Z,99816.50
2022-11-17T23:39:30.549Z,99818.88
2022-11-17T23:41:57.169Z,99825.13
2022-11-17T23:44:23.787Z,99823.09
2022-11-17T23:46:50.381Z,99821.88
2022-11-17T23:49:17.189Z,99820.25
2022-11-17T23:51:43.962Z,99819.31
2022-11-17T23:54:15.790Z,99823.69
2022-11-17T23:56:42.558Z,99828.19
2022-11-17T23:59:09.840Z,99836.03
